Mombaca, Brazil
Current Conditions -  °F | °C
As of 5:00 PM on Thursday 27 Nov 2014 (Local Time) from SBJU Reporting Station
Few Clouds Few Clouds  
Wind Chill: 93°   Ceiling: Unl
Heat Index: 96°   Visibility: 6mi
Dew Point: 66°   Wind: 10mph
Humidity: 41%   Direction: 90°E
Pressure: 29.91"   Gusts: NA
Location:  5.74°S, 39.63°W
Report Text: SBJU 272000Z 09009KT 9999 FEW022 FEW023TCU 34/19 Q1013
Loading
Personal Weather Stations






























Interactive Weather Map New forecast layout! Learn more

10-Day Weather Forecast

Advertisements
Track Severe Weather on mobile